createdAt,value
2023-01-29T00:00:10.997Z,93530.38
2023-01-29T00:02:42.081Z,93527.34
2023-01-29T00:05:26.459Z,93537.00
2023-01-29T00:07:57.069Z,93549.47
2023-01-29T00:10:25.775Z,93536.78
2023-01-29T00:12:54.158Z,93530.63
2023-01-29T00:15:24.109Z,93544.56
2023-01-29T00:17:52.183Z,93535.09
2023-01-29T00:20:20.201Z,93545.38
2023-01-29T00:22:48.387Z,93552.56
2023-01-29T00:25:16.581Z,93547.81
2023-01-29T00:27:45.021Z,93548.88
2023-01-29T00:30:14.353Z,93548.66
2023-01-29T00:32:42.687Z,93556.94
2023-01-29T00:35:11.877Z,93555.19
2023-01-29T00:37:40.114Z,93547.00
2023-01-29T00:40:09.435Z,93550.00
2023-01-29T00:42:56.233Z,93544.44
2023-01-29T00:45:24.336Z,93540.09
2023-01-29T00:47:52.209Z,93548.25
2023-01-29T00:50:20.575Z,93550.66
2023-01-29T00:52:50.316Z,93547.38
2023-01-29T00:55:18.732Z,93540.25
2023-01-29T00:57:47.066Z,93547.31
2023-01-29T01:00:18.408Z,93539.03
2023-01-29T01:03:05.267Z,93539.53
2023-01-29T01:05:33.891Z,93541.41
2023-01-29T01:08:01.742Z,93542.59
2023-01-29T01:10:32.853Z,93538.78
2023-01-29T01:13:06.110Z,93536.44
2023-01-29T01:15:39.655Z,93548.66
2023-01-29T01:18:07.816Z,93546.44
2023-01-29T01:20:36.901Z,93537.47
2023-01-29T01:23:04.872Z,93531.78
2023-01-29T01:25:33.043Z,93532.50
2023-01-29T01:28:01.823Z,93537.81
2023-01-29T01:30:29.851Z,93538.84
2023-01-29T01:32:57.928Z,93527.72
2023-01-29T01:35:26.043Z,93515.53
2023-01-29T01:37:54.099Z,93538.88
2023-01-29T01:40:24.047Z,93542.00
2023-01-29T01:42:56.952Z,93543.00
2023-01-29T01:45:29.611Z,93547.44
2023-01-29T01:48:13.233Z,93549.47
2023-01-29T01:50:50.392Z,93546.75
2023-01-29T01:53:34.641Z,93550.16
2023-01-29T01:56:07.097Z,93546.13
2023-01-29T01:58:58.619Z,93544.47
2023-01-29T02:01:30.801Z,93552.78
2023-01-29T02:04:46.390Z,93550.72
2023-01-29T02:07:34.577Z,93552.84
2023-01-29T02:10:22.389Z,93553.75
2023-01-29T02:12:51.562Z,93553.13
2023-01-29T02:15:19.569Z,93562.28
2023-01-29T02:17:48.616Z,93548.91
2023-01-29T02:20:25.729Z,93564.84
2023-01-29T02:22:56.265Z,93560.44
2023-01-29T02:26:01.757Z,93561.88
2023-01-29T02:28:49.277Z,93569.47
2023-01-29T02:31:29.430Z,93571.97
2023-01-29T02:34:32.506Z,93561.34
2023-01-29T02:37:11.361Z,93571.75
2023-01-29T02:40:04.266Z,93580.59
2023-01-29T02:42:39.583Z,93575.69
2023-01-29T02:45:23.810Z,93581.91
2023-01-29T02:47:57.718Z,93580.13
2023-01-29T02:50:45.789Z,93588.59
2023-01-29T02:53:19.138Z,93588.31
2023-01-29T02:59:00.612Z,93594.03
2023-01-29T03:01:40.600Z,93587.44
2023-01-29T03:04:14.368Z,93586.44
2023-01-29T03:06:47.595Z,93587.41
2023-01-29T03:09:26.249Z,93569.16
2023-01-29T03:12:03.978Z,93590.38
2023-01-29T03:14:58.592Z,93598.03
2023-01-29T03:17:33.284Z,93600.59
2023-01-29T03:20:03.833Z,93602.09
2023-01-29T03:22:33.046Z,93593.53
2023-01-29T03:25:23.689Z,93591.59
2023-01-29T03:28:21.217Z,93604.53
2023-01-29T03:31:23.693Z,93606.72
2023-01-29T03:34:02.026Z,93601.22
2023-01-29T03:36:48.041Z,93592.28
2023-01-29T03:39:19.007Z,93594.16
2023-01-29T03:42:27.297Z,93595.81
2023-01-29T03:48:33.572Z,93597.22
2023-01-29T03:51:35.415Z,93600.91
2023-01-29T03:54:31.147Z,93604.25
2023-01-29T03:57:03.939Z,93597.91
2023-01-29T03:59:38.790Z,93602.69
2023-01-29T04:02:36.133Z,93588.25
2023-01-29T04:08:15.472Z,93596.66
2023-01-29T04:10:49.952Z,93602.06
2023-01-29T04:13:19.739Z,93602.78
2023-01-29T04:15:54.939Z,93606.66
2023-01-29T04:18:38.816Z,93604.91
2023-01-29T04:21:09.471Z,93608.66
2023-01-29T04:23:37.498Z,93605.06
2023-01-29T04:26:29.303Z,93613.09
2023-01-29T04:29:30.223Z,93611.50
2023-01-29T04:32:31.589Z,93614.66
2023-01-29T04:35:14.593Z,93619.69
2023-01-29T04:37:53.405Z,93614.09
2023-01-29T04:43:34.493Z,93612.94
2023-01-29T04:46:20.151Z,93616.34
2023-01-29T04:49:14.507Z,93620.06
2023-01-29T04:51:59.063Z,93620.69
2023-01-29T04:54:33.205Z,93630.16
2023-01-29T04:57:23.378Z,93624.91
2023-01-29T05:00:00.292Z,93623.47
2023-01-29T05:02:28.792Z,93624.50
2023-01-29T05:04:59.382Z,93624.41
2023-01-29T05:07:31.541Z,93632.34
2023-01-29T05:10:00.483Z,93630.88
2023-01-29T05:12:31.369Z,93634.78
2023-01-29T05:15:03.013Z,93638.22
2023-01-29T05:17:31.473Z,93642.38
2023-01-29T05:19:59.321Z,93640.72
2023-01-29T05:22:28.042Z,93642.84
2023-01-29T05:24:56.065Z,93639.19
2023-01-29T05:27:56.543Z,93639.13
2023-01-29T05:30:26.582Z,93645.88
2023-01-29T05:32:54.641Z,93642.91
2023-01-29T05:35:22.607Z,93644.91
2023-01-29T05:37:50.695Z,93648.97
2023-01-29T05:40:18.847Z,93652.84
2023-01-29T05:42:47.055Z,93645.44
2023-01-29T05:45:15.229Z,93654.84
2023-01-29T05:47:43.458Z,93655.19
2023-01-29T05:50:12.250Z,93659.19
2023-01-29T05:52:41.188Z,93648.25
2023-01-29T05:55:10.006Z,93667.84
2023-01-29T05:57:40.003Z,93652.69
2023-01-29T06:00:09.582Z,93652.94
2023-01-29T06:02:40.677Z,93672.53
2023-01-29T06:05:09.295Z,93667.13
2023-01-29T06:07:37.244Z,93672.88
2023-01-29T06:10:05.515Z,93681.03
2023-01-29T06:12:33.613Z,93680.66
2023-01-29T06:15:01.563Z,93683.56
2023-01-29T06:17:29.467Z,93686.72
2023-01-29T06:19:57.458Z,93684.38
2023-01-29T06:22:25.559Z,93695.56
2023-01-29T06:24:53.569Z,93702.97
2023-01-29T06:27:28.651Z,93703.97
2023-01-29T06:29:56.769Z,93701.28
2023-01-29T06:32:25.168Z,93702.53
2023-01-29T06:34:53.567Z,93708.66
2023-01-29T06:37:22.428Z,93705.78
2023-01-29T06:39:50.647Z,93706.22
2023-01-29T06:42:21.755Z,93709.84
2023-01-29T06:44:50.235Z,93716.53
2023-01-29T06:47:18.343Z,93723.28
2023-01-29T06:49:46.599Z,93715.09
2023-01-29T06:52:14.686Z,93716.19
2023-01-29T06:54:42.670Z,93720.41
2023-01-29T06:57:10.642Z,93727.47
2023-01-29T06:59:38.622Z,93728.66
2023-01-29T07:02:07.308Z,93708.50
2023-01-29T07:04:37.029Z,93721.78
2023-01-29T07:07:08.721Z,93715.34
2023-01-29T07:09:37.118Z,93720.34
2023-01-29T07:12:05.129Z,93719.41
2023-01-29T07:14:33.114Z,93724.78
2023-01-29T07:17:01.419Z,93730.09
2023-01-29T07:19:29.624Z,93733.25
2023-01-29T07:21:58.128Z,93730.19
2023-01-29T07:24:26.433Z,93733.91
2023-01-29T07:26:54.320Z,93731.44
2023-01-29T07:29:22.259Z,93737.31
2023-01-29T07:31:50.382Z,93738.91
2023-01-29T07:34:18.529Z,93727.28
2023-01-29T07:36:46.980Z,93739.09
2023-01-29T07:39:15.401Z,93743.81
2023-01-29T07:41:43.421Z,93747.78
2023-01-29T07:44:17.285Z,93735.09
2023-01-29T07:46:45.606Z,93746.50
2023-01-29T07:49:13.819Z,93757.25
2023-01-29T07:51:42.293Z,93751.13
2023-01-29T07:54:10.341Z,93753.34
2023-01-29T07:56:38.796Z,93757.53
2023-01-29T07:59:06.917Z,93752.16
2023-01-29T08:01:34.975Z,93750.41
2023-01-29T08:04:03.117Z,93759.00
2023-01-29T08:06:31.314Z,93752.66
2023-01-29T08:09:00.145Z,93759.69
2023-01-29T08:11:28.847Z,93752.25
2023-01-29T08:13:57.660Z,93764.63
2023-01-29T08:16:26.072Z,93760.00
2023-01-29T08:18:53.914Z,93763.00
2023-01-29T08:21:21.888Z,93768.06
2023-01-29T08:23:50.123Z,93770.38
2023-01-29T08:26:18.042Z,93764.88
2023-01-29T08:28:46.025Z,93763.75
2023-01-29T08:31:18.543Z,93772.22
2023-01-29T08:33:46.861Z,93776.09
2023-01-29T08:36:15.462Z,93770.59
2023-01-29T08:38:43.350Z,93769.38
2023-01-29T08:41:11.621Z,93778.25
2023-01-29T08:43:40.223Z,93779.50
2023-01-29T08:46:08.760Z,93781.75
2023-01-29T08:48:36.878Z,93787.38
2023-01-29T08:51:05.397Z,93789.53
2023-01-29T08:53:33.696Z,93788.91
2023-01-29T08:56:01.756Z,93783.06
2023-01-29T08:58:29.989Z,93795.69
2023-01-29T09:01:05.744Z,93803.53
2023-01-29T09:03:33.746Z,93805.81
2023-01-29T09:06:01.815Z,93803.75
2023-01-29T09:08:29.810Z,93807.91
2023-01-29T09:11:00.476Z,93814.56
2023-01-29T09:13:28.473Z,93809.66
2023-01-29T09:16:00.438Z,93807.78
2023-01-29T09:18:30.138Z,93796.84
2023-01-29T09:20:58.832Z,93811.50
2023-01-29T09:23:28.893Z,93814.09
2023-01-29T09:25:57.255Z,93803.16
2023-01-29T09:28:25.199Z,93808.16
2023-01-29T09:30:53.248Z,93796.13
2023-01-29T09:33:21.329Z,93805.88
2023-01-29T09:35:49.223Z,93802.88
2023-01-29T09:38:17.060Z,93805.00
2023-01-29T09:41:16.743Z,93805.81
2023-01-29T09:44:05.117Z,93792.25
2023-01-29T09:46:41.795Z,93782.28
2023-01-29T09:49:28.400Z,93794.00
2023-01-29T09:52:06.122Z,93785.53
2023-01-29T09:55:01.150Z,93765.53
2023-01-29T09:57:39.290Z,93764.53
2023-01-29T10:00:14.261Z,93784.28
2023-01-29T10:03:20.508Z,93779.63
2023-01-29T10:05:57.325Z,93781.84
2023-01-29T10:08:37.305Z,93776.38
2023-01-29T10:11:34.102Z,93770.78
2023-01-29T10:14:24.394Z,93770.59
2023-01-29T10:17:01.318Z,93774.56
2023-01-29T10:20:11.271Z,93772.00
2023-01-29T10:23:00.324Z,93771.31
2023-01-29T10:25:28.980Z,93756.81
2023-01-29T10:27:59.482Z,93758.44
2023-01-29T10:30:42.012Z,93753.69
2023-01-29T10:33:18.248Z,93755.41
2023-01-29T10:36:02.868Z,93748.06
2023-01-29T10:38:51.448Z,93734.63
2023-01-29T10:41:41.513Z,93739.41
2023-01-29T10:44:36.403Z,93734.16
2023-01-29T10:47:40.680Z,93737.38
2023-01-29T10:50:34.295Z,93748.88
2023-01-29T10:53:11.572Z,93747.25
2023-01-29T10:56:23.944Z,93733.44
2023-01-29T10:58:55.514Z,93702.38
2023-01-29T11:01:24.694Z,93737.44
2023-01-29T11:04:00.093Z,93733.50
2023-01-29T11:06:36.800Z,93737.25
2023-01-29T11:09:23.797Z,93725.31
2023-01-29T11:12:13.799Z,93684.41
2023-01-29T11:14:54.680Z,93718.31
2023-01-29T11:17:25.224Z,93716.94
2023-01-29T11:19:57.779Z,93718.81
2023-01-29T11:22:30.999Z,93722.19
2023-01-29T11:25:18.783Z,93727.16
2023-01-29T11:27:58.168Z,93722.53
2023-01-29T11:30:40.692Z,93720.53
2023-01-29T11:33:26.631Z,93709.41
2023-01-29T11:35:57.405Z,93704.50
2023-01-29T11:38:28.278Z,93708.78
2023-01-29T11:41:07.170Z,93711.00
2023-01-29T11:43:35.421Z,93709.81
2023-01-29T11:46:12.553Z,93707.06
2023-01-29T11:48:42.826Z,93704.28
2023-01-29T11:51:22.584Z,93706.41
2023-01-29T11:53:56.739Z,93700.91
2023-01-29T11:56:40.961Z,93702.44
2023-01-29T11:59:26.671Z,93691.78
2023-01-29T12:01:56.120Z,93695.31
2023-01-29T12:04:25.939Z,93700.00
2023-01-29T12:06:55.003Z,93696.34
2023-01-29T12:09:27.580Z,93688.22
2023-01-29T12:11:56.434Z,93691.78
2023-01-29T12:14:34.283Z,93685.84
2023-01-29T12:17:13.450Z,93672.47
2023-01-29T12:19:55.851Z,93667.25
2023-01-29T12:22:43.667Z,93670.50
2023-01-29T12:25:31.857Z,93671.16
2023-01-29T12:28:23.784Z,93669.97
2023-01-29T12:31:15.756Z,93671.97
2023-01-29T12:33:57.858Z,93665.50
2023-01-29T12:36:44.568Z,93681.19
2023-01-29T12:39:17.443Z,93687.50
2023-01-29T12:41:58.864Z,93683.66
2023-01-29T12:45:08.479Z,93685.84
2023-01-29T12:47:44.291Z,93689.16
2023-01-29T12:50:23.124Z,93687.59
2023-01-29T12:52:58.919Z,93687.97
2023-01-29T12:55:35.222Z,93688.38
2023-01-29T12:58:14.581Z,93701.00
2023-01-29T13:00:49.649Z,93695.03
2023-01-29T13:03:30.460Z,93685.78
2023-01-29T13:06:12.681Z,93680.72
2023-01-29T13:08:51.753Z,93683.00
2023-01-29T13:11:35.018Z,93685.69
2023-01-29T13:14:25.976Z,93672.47
2023-01-29T13:17:03.114Z,93687.69
2023-01-29T13:19:39.663Z,93693.13
2023-01-29T13:22:36.305Z,93697.97
2023-01-29T13:25:06.064Z,93687.50
2023-01-29T13:27:37.112Z,93684.84
2023-01-29T13:30:06.657Z,93697.97
2023-01-29T13:32:36.831Z,93690.16
2023-01-29T13:35:13.818Z,93688.47
2023-01-29T13:37:57.208Z,93692.91
2023-01-29T13:40:29.590Z,93696.44
2023-01-29T13:43:00.363Z,93701.22
2023-01-29T13:45:45.033Z,93696.53
2023-01-29T13:48:37.265Z,93704.72
2023-01-29T13:51:20.491Z,93713.75
2023-01-29T13:54:18.104Z,93707.28
2023-01-29T13:56:59.665Z,93678.75
2023-01-29T13:59:51.944Z,93709.84
2023-01-29T14:02:28.901Z,93714.75
2023-01-29T14:05:31.217Z,93718.81
2023-01-29T14:08:15.496Z,93710.00
2023-01-29T14:10:44.959Z,93701.72
2023-01-29T14:13:19.210Z,93708.25
2023-01-29T14:16:13.843Z,93702.38
2023-01-29T14:19:00.958Z,93707.53
2023-01-29T14:21:35.969Z,93709.91
2023-01-29T14:24:17.554Z,93706.22
2023-01-29T14:26:47.940Z,93719.34
2023-01-29T14:29:34.602Z,93722.00
2023-01-29T14:32:06.574Z,93725.03
2023-01-29T14:35:05.836Z,93734.69
2023-01-29T14:37:39.708Z,93737.94
2023-01-29T14:40:30.053Z,93750.44
2023-01-29T14:43:21.189Z,93740.50
2023-01-29T14:45:50.636Z,93741.53
2023-01-29T14:48:37.104Z,93751.69
2023-01-29T14:51:14.554Z,93746.88
2023-01-29T14:54:40.657Z,93748.56
2023-01-29T14:57:15.499Z,93753.81
2023-01-29T14:59:54.918Z,93747.16
2023-01-29T15:02:33.565Z,93734.22
2023-01-29T15:05:05.403Z,93744.78
2023-01-29T15:07:52.203Z,93743.53
2023-01-29T15:10:40.500Z,93742.25
2023-01-29T15:13:15.614Z,93741.91
2023-01-29T15:15:50.007Z,93738.44
2023-01-29T15:18:53.074Z,93740.56
2023-01-29T15:21:21.593Z,93742.31
2023-01-29T15:24:05.748Z,93744.81
2023-01-29T15:26:36.377Z,93744.13
2023-01-29T15:29:06.315Z,93747.47
2023-01-29T15:31:36.000Z,93743.59
2023-01-29T15:34:08.021Z,93753.72
2023-01-29T15:36:37.916Z,93745.66
2023-01-29T15:39:19.639Z,93745.50
2023-01-29T15:41:49.229Z,93748.50
2023-01-29T15:44:27.193Z,93756.91
2023-01-29T15:46:59.759Z,93751.78
2023-01-29T15:49:36.417Z,93757.88
2023-01-29T15:52:26.284Z,93761.22
2023-01-29T15:54:58.755Z,93762.44
2023-01-29T15:57:35.312Z,93759.00
2023-01-29T16:00:10.206Z,93763.94
2023-01-29T16:02:43.710Z,93768.13
2023-01-29T16:05:20.055Z,93762.59
2023-01-29T16:07:56.239Z,93757.34
2023-01-29T16:10:35.922Z,93767.63
2023-01-29T16:13:05.723Z,93775.44
2023-01-29T16:15:38.412Z,93775.75
2023-01-29T16:21:15.415Z,93776.22
2023-01-29T16:23:54.260Z,93775.94
2023-01-29T16:26:28.131Z,93779.41
2023-01-29T16:29:03.349Z,93779.22
2023-01-29T16:31:33.352Z,93780.28
2023-01-29T16:36:55.248Z,93775.66
2023-01-29T16:39:28.160Z,93767.75
2023-01-29T16:42:17.732Z,93777.69
2023-01-29T16:45:08.532Z,93781.66
2023-01-29T16:47:39.812Z,93785.00
2023-01-29T16:50:40.701Z,93778.31
2023-01-29T16:53:25.339Z,93790.00
2023-01-29T16:55:56.709Z,93785.66
2023-01-29T16:58:28.621Z,93791.38
2023-01-29T17:01:05.566Z,93782.06
2023-01-29T17:03:38.607Z,93790.41
2023-01-29T17:06:22.474Z,93787.06
2023-01-29T17:09:02.551Z,93787.31
2023-01-29T17:11:37.851Z,93778.81
2023-01-29T17:14:08.659Z,93783.78
2023-01-29T17:19:34.309Z,93770.84
2023-01-29T17:22:20.869Z,93783.94
2023-01-29T17:24:57.863Z,93777.72
2023-01-29T17:27:26.333Z,93777.53
2023-01-29T17:29:55.212Z,93783.16
2023-01-29T17:32:25.862Z,93777.63
2023-01-29T17:35:15.007Z,93782.63
2023-01-29T17:37:46.084Z,93778.19
2023-01-29T17:40:32.245Z,93772.13
2023-01-29T17:43:00.854Z,93782.78
2023-01-29T17:45:29.358Z,93778.56
2023-01-29T17:48:00.270Z,93774.66
2023-01-29T17:50:32.020Z,93791.91
2023-01-29T17:53:00.505Z,93776.81
2023-01-29T17:55:28.895Z,93773.56
2023-01-29T17:57:57.865Z,93785.16
2023-01-29T18:00:26.218Z,93782.97
2023-01-29T18:02:55.051Z,93793.63
2023-01-29T18:05:23.687Z,93787.31
2023-01-29T18:07:54.747Z,93784.59
2023-01-29T18:10:23.551Z,93784.41
2023-01-29T18:12:52.715Z,93774.56
2023-01-29T18:15:21.663Z,93767.13
2023-01-29T18:17:53.234Z,93780.78
2023-01-29T18:20:25.805Z,93780.69
2023-01-29T18:22:54.885Z,93765.22
2023-01-29T18:25:24.918Z,93774.75
2023-01-29T18:27:54.427Z,93777.63
2023-01-29T18:30:22.788Z,93768.50
2023-01-29T18:32:51.221Z,93763.88
2023-01-29T18:35:19.851Z,93760.19
2023-01-29T18:37:48.183Z,93759.81
2023-01-29T18:40:17.864Z,93761.47
2023-01-29T18:42:47.561Z,93772.53
2023-01-29T18:45:17.132Z,93767.59
2023-01-29T18:47:46.572Z,93772.38
2023-01-29T18:50:14.966Z,93772.47
2023-01-29T18:52:44.891Z,93768.97
2023-01-29T18:55:13.388Z,93770.69
2023-01-29T18:58:26.145Z,93773.38
2023-01-29T19:06:05.562Z,93767.75
2023-01-29T19:11:18.028Z,93766.16
2023-01-29T19:13:52.900Z,93761.34
2023-01-29T19:16:21.299Z,93773.09
2023-01-29T19:18:49.851Z,93770.94
2023-01-29T19:21:18.809Z,93774.03
2023-01-29T19:23:47.465Z,93768.94
2023-01-29T19:26:27.496Z,93731.63
2023-01-29T19:29:09.527Z,93761.63
2023-01-29T19:31:38.798Z,93750.97
2023-01-29T19:34:09.983Z,93771.66
2023-01-29T19:36:48.938Z,93769.75
2023-01-29T19:39:17.698Z,93761.59
2023-01-29T19:41:54.235Z,93770.13
2023-01-29T19:44:23.237Z,93769.75
2023-01-29T19:46:51.744Z,93765.84
2023-01-29T19:49:20.216Z,93767.50
2023-01-29T19:51:49.262Z,93761.31
2023-01-29T19:54:17.737Z,93765.81
2023-01-29T19:56:59.592Z,93771.78
2023-01-29T19:59:31.417Z,93761.59
2023-01-29T20:02:02.527Z,93772.50
2023-01-29T20:04:36.514Z,93768.81
2023-01-29T20:07:04.615Z,93774.97
2023-01-29T20:09:33.470Z,93781.41
2023-01-29T20:14:49.359Z,93777.44
2023-01-29T20:17:18.537Z,93780.16
2023-01-29T20:19:51.799Z,93780.31
2023-01-29T20:22:20.184Z,93777.06
2023-01-29T20:24:48.875Z,93776.97
2023-01-29T20:27:18.649Z,93768.47
2023-01-29T20:29:46.935Z,93767.38
2023-01-29T20:32:16.456Z,93754.28
2023-01-29T20:34:46.130Z,93776.25
2023-01-29T20:37:19.848Z,93770.81
2023-01-29T20:42:30.228Z,93767.13
2023-01-29T20:44:58.750Z,93763.44
2023-01-29T20:47:28.984Z,93765.88
2023-01-29T20:50:02.736Z,93770.75
2023-01-29T20:52:36.590Z,93767.31
2023-01-29T20:55:06.527Z,93768.38
2023-01-29T20:57:34.822Z,93758.34
2023-01-29T21:00:03.447Z,93753.75
2023-01-29T21:02:31.585Z,93771.66
2023-01-29T21:04:59.606Z,93775.06
2023-01-29T21:07:27.453Z,93770.75
2023-01-29T21:09:55.523Z,93781.88
2023-01-29T21:12:23.440Z,93785.56
2023-01-29T21:14:51.484Z,93787.94
2023-01-29T21:17:19.382Z,93786.41
2023-01-29T21:19:48.157Z,93774.09
2023-01-29T21:22:16.947Z,93778.31
2023-01-29T21:24:45.076Z,93777.69
2023-01-29T21:27:12.997Z,93775.34
2023-01-29T21:29:41.032Z,93792.28
2023-01-29T21:32:10.168Z,93790.72
2023-01-29T21:34:38.277Z,93789.03
2023-01-29T21:37:06.201Z,93787.75
2023-01-29T21:39:34.219Z,93788.56
2023-01-29T21:42:20.453Z,93789.28
2023-01-29T21:44:48.539Z,93783.78
2023-01-29T21:47:16.509Z,93788.28
2023-01-29T21:49:45.064Z,93762.53
2023-01-29T21:52:14.434Z,93765.50
2023-01-29T21:54:49.118Z,93773.63
2023-01-29T21:57:17.527Z,93777.59
2023-01-29T21:59:47.195Z,93777.31
2023-01-29T22:02:23.301Z,93772.00
2023-01-29T22:04:54.147Z,93769.56
2023-01-29T22:07:22.147Z,93763.44
2023-01-29T22:09:50.405Z,93756.28
2023-01-29T22:12:18.522Z,93757.69
2023-01-29T22:14:47.552Z,93753.72
2023-01-29T22:17:16.681Z,93747.38
2023-01-29T22:19:44.675Z,93748.91
2023-01-29T22:22:14.761Z,93737.53
2023-01-29T22:24:45.162Z,93738.56
2023-01-29T22:27:15.177Z,93742.31
2023-01-29T22:29:43.318Z,93748.28
2023-01-29T22:32:11.812Z,93740.06
2023-01-29T22:34:39.698Z,93740.53
2023-01-29T22:37:07.740Z,93742.97
2023-01-29T22:39:35.685Z,93732.47
2023-01-29T22:42:04.074Z,93742.69
2023-01-29T22:44:32.030Z,93731.84
2023-01-29T22:47:00.547Z,93735.81
2023-01-29T22:49:30.390Z,93735.31
2023-01-29T22:52:10.295Z,93735.72
2023-01-29T22:54:40.377Z,93727.59
2023-01-29T22:57:11.272Z,93706.09
2023-01-29T22:59:39.903Z,93733.41
2023-01-29T23:02:08.931Z,93727.16
2023-01-29T23:04:37.399Z,93716.13
2023-01-29T23:07:05.299Z,93714.31
2023-01-29T23:09:33.420Z,93719.75
2023-01-29T23:12:01.707Z,93709.00
2023-01-29T23:14:29.869Z,93698.06
2023-01-29T23:16:57.953Z,93716.63
2023-01-29T23:19:27.260Z,93718.06
2023-01-29T23:21:55.793Z,93717.59
2023-01-29T23:24:23.745Z,93710.28
2023-01-29T23:27:10.612Z,93717.28
2023-01-29T23:29:38.606Z,93713.75
2023-01-29T23:32:07.430Z,93710.72
2023-01-29T23:34:35.486Z,93713.56
2023-01-29T23:37:05.834Z,93711.78
2023-01-29T23:39:33.931Z,93713.16
2023-01-29T23:42:02.343Z,93713.41
2023-01-29T23:44:30.308Z,93710.81
2023-01-29T23:46:59.445Z,93711.91
2023-01-29T23:49:27.523Z,93719.78
2023-01-29T23:51:55.378Z,93701.66
2023-01-29T23:54:23.581Z,93712.78
2023-01-29T23:56:51.479Z,93703.91
2023-01-29T23:59:19.580Z,93707.75
